Terminal Aerodrome Forecast
Issued by NWS Sioux Falls, SD

Home | Current Version | Previous Version | Graphics & Text | Print | Product List | Glossary Off
Versions: 1 2 3 4 5 6 7 8 9 10 11 12 13

545
FTUS43 KFSD 241120
TAFHON
TAF
KHON 241120Z 2412/2512 36020G30KT P6SM SCT025
     FM242100 35020G28KT P6SM SCT250
     FM250300 34013G19KT P6SM SCT250
     FM250700 33008KT P6SM SCT250
     FM251100 30005KT P6SM SCT250=

USA.gov is the U.S. government's official web portal to all federal, state and local government web resources and services.